createdAt,value
2023-06-07T00:01:58.501Z,18
2023-06-07T00:12:01.097Z,18
2023-06-07T00:32:05.431Z,17.5
2023-06-07T00:42:07.164Z,17.2
2023-06-07T00:52:09.061Z,17.1
2023-06-07T01:02:11.237Z,17.2
2023-06-07T01:12:13.343Z,17.1
2023-06-07T01:22:15.982Z,17
2023-06-07T01:32:17.768Z,16.7
2023-06-07T02:12:36.601Z,16.5
2023-06-07T02:32:41.189Z,16.3
2023-06-07T02:52:45.396Z,15.9
2023-06-07T03:12:50.430Z,15.8
2023-06-07T03:32:54.860Z,15.4
2023-06-07T03:53:00.075Z,15.2
2023-06-07T04:13:04.623Z,15.2
2023-06-07T04:23:07.007Z,15
2023-06-07T05:03:15.724Z,14.4
2023-06-07T05:13:18.018Z,14.3
2023-06-07T05:23:20.571Z,14
2023-06-07T05:33:22.931Z,13.9
2023-06-07T05:43:24.735Z,13.9
2023-06-07T05:53:26.580Z,13.8
2023-06-07T06:03:28.477Z,13.9
2023-06-07T06:23:33.223Z,13.9
2023-06-07T08:03:54.979Z,13.8
2023-06-07T09:04:07.896Z,14.7
2023-06-07T09:34:13.568Z,16
2023-06-07T10:24:24.920Z,16
2023-06-07T10:54:31.185Z,16.6
2023-06-07T11:14:36.088Z,17.4
2023-06-07T11:24:38.078Z,17.6
2023-06-07T11:54:45.434Z,18.3
2023-06-07T12:04:47.776Z,19.2
2023-06-07T12:14:50.281Z,19.3
2023-06-07T12:24:52.759Z,19.6
2023-06-07T12:34:54.907Z,20.1
2023-06-07T12:44:57.067Z,20.5
2023-06-07T12:54:58.934Z,20.7
2023-06-07T13:05:01.480Z,21
2023-06-07T13:55:11.881Z,21.9
2023-06-07T14:15:16.662Z,22.7
2023-06-07T14:35:20.197Z,22.8
2023-06-07T14:45:21.854Z,23
2023-06-07T14:55:23.711Z,23
2023-06-07T15:15:28.150Z,23.5
2023-06-07T15:25:30.269Z,23.6
2023-06-07T15:35:32.598Z,23.3
2023-06-07T15:45:34.875Z,23.6
2023-06-07T15:55:37.638Z,23.7
2023-06-07T16:15:41.106Z,23.5
2023-06-07T16:25:43.353Z,22.9
2023-06-07T16:35:45.878Z,22.5
2023-06-07T16:45:48.302Z,22.1
2023-06-07T16:55:50.156Z,23.1
2023-06-07T17:05:52.229Z,23.2
2023-06-07T17:15:54.991Z,22.8
2023-06-07T17:25:57.307Z,22.7
2023-06-07T17:35:59.687Z,22.7
2023-06-07T17:46:01.432Z,22.4
2023-06-07T17:56:03.175Z,22.1
2023-06-07T18:06:05.405Z,22
2023-06-07T18:16:08.245Z,22.1
2023-06-07T18:26:10.410Z,21.9
2023-06-07T18:36:12.378Z,21.7
2023-06-07T18:46:15.838Z,21.7
2023-06-07T19:06:19.738Z,21.4
2023-06-07T19:16:21.585Z,21.2
2023-06-07T19:26:23.979Z,21
2023-06-07T19:36:25.689Z,20.8
2023-06-07T19:46:27.618Z,20.6
2023-06-07T19:56:29.624Z,20.5
2023-06-07T20:06:32.259Z,20.3
2023-06-07T20:16:34.888Z,20.1
2023-06-07T20:26:36.795Z,20
2023-06-07T20:36:38.989Z,19.9
2023-06-07T20:46:41.272Z,19.9
2023-06-07T20:56:42.968Z,19.7
2023-06-07T21:06:44.681Z,19.6
2023-06-07T21:16:48.372Z,19.6
2023-06-07T21:26:49.384Z,19.4
2023-06-07T21:36:51.117Z,19.3
2023-06-07T21:46:53.042Z,19.2
2023-06-07T21:56:54.911Z,18.8
2023-06-07T22:06:57.189Z,18.5
2023-06-07T22:16:59.003Z,18.4
2023-06-07T22:27:01.075Z,18.3
2023-06-07T22:37:02.977Z,18.2
2023-06-07T22:57:07.976Z,18
2023-06-07T23:07:10.494Z,17.9
2023-06-07T23:17:12.425Z,17.8
2023-06-07T23:27:14.386Z,17.6
2023-06-07T23:37:17.028Z,17.5
2023-06-07T23:47:19.060Z,17.3
2023-06-07T23:57:20.979Z,17.1
